sensor_id;sensor_type;location;lat;lon;timestamp;pressure;altitude;pressure_sealevel;temperature;humidity
75867;BME280;64513;56.258;43.980;2022-12-24T00:02:15;98895.30;;;7.86;65.61
75867;BME280;64513;56.258;43.980;2022-12-24T00:04:39;98882.14;;;7.86;65.62
75867;BME280;64513;56.258;43.980;2022-12-24T00:07:03;98874.23;;;7.86;65.63
75867;BME280;64513;56.258;43.980;2022-12-24T00:09:27;98895.30;;;7.86;65.64
75867;BME280;64513;56.258;43.980;2022-12-24T00:11:51;98896.84;;;7.87;65.63
75867;BME280;64513;56.258;43.980;2022-12-24T00:14:16;98887.87;;;7.88;65.63
75867;BME280;64513;56.258;43.980;2022-12-24T00:16:40;98911.56;;;7.88;65.68
75867;BME280;64513;56.258;43.980;2022-12-24T00:19:04;98892.08;;;7.89;65.61
75867;BME280;64513;56.258;43.980;2022-12-24T00:21:28;98889.45;;;7.89;65.65
75867;BME280;64513;56.258;43.980;2022-12-24T00:23:52;98912.87;;;7.91;65.67
75867;BME280;64513;56.258;43.980;2022-12-24T00:26:16;98897.86;;;7.91;65.65
75867;BME280;64513;56.258;43.980;2022-12-24T00:28:41;98906.27;;;7.93;65.64
75867;BME280;64513;56.258;43.980;2022-12-24T00:31:25;98901.78;;;7.94;65.68
75867;BME280;64513;56.258;43.980;2022-12-24T00:33:49;98907.84;;;7.94;65.62
75867;BME280;64513;56.258;43.980;2022-12-24T00:36:14;98909.68;;;7.94;65.60
75867;BME280;64513;56.258;43.980;2022-12-24T00:38:38;98911.53;;;7.93;65.70
75867;BME280;64513;56.258;43.980;2022-12-24T00:41:04;98906.27;;;7.93;65.70
75867;BME280;64513;56.258;43.980;2022-12-24T00:44:22;98906.27;;;7.93;65.71
75867;BME280;64513;56.258;43.980;2022-12-24T00:46:14;98916.80;;;7.93;65.71
75867;BME280;64513;56.258;43.980;2022-12-24T00:48:38;98918.91;;;7.91;65.74
75867;BME280;64513;56.258;43.980;2022-12-24T00:51:03;98913.65;;;7.91;65.78
75867;BME280;64513;56.258;43.980;2022-12-24T00:53:27;98911.53;;;7.93;65.81
75867;BME280;64513;56.258;43.980;2022-12-24T00:55:51;98918.36;;;7.94;65.76
75867;BME280;64513;56.258;43.980;2022-12-24T00:58:15;98926.77;;;7.96;65.77
75867;BME280;64513;56.258;43.980;2022-12-24T01:00:39;98909.41;;;7.95;65.77
75867;BME280;64513;56.258;43.980;2022-12-24T01:03:03;98929.13;;;7.98;65.76
75867;BME280;64513;56.258;43.980;2022-12-24T01:05:27;98915.96;;;7.98;65.71
75867;BME280;64513;56.258;43.980;2022-12-24T01:07:52;98920.95;;;7.99;65.73
75867;BME280;64513;56.258;43.980;2022-12-24T01:10:18;98925.16;;;8.00;65.71
75867;BME280;64513;56.258;43.980;2022-12-24T01:12:43;98923.31;;;8.01;65.73
75867;BME280;64513;56.258;43.980;2022-12-24T01:15:09;98930.93;;;8.02;65.69
75867;BME280;64513;56.258;43.980;2022-12-24T01:17:34;98938.83;;;8.02;65.67
75867;BME280;64513;56.258;43.980;2022-12-24T01:19:59;98928.30;;;8.02;65.71
75867;BME280;64513;56.258;43.980;2022-12-24T01:22:23;98934.05;;;8.04;65.73
75867;BME280;64513;56.258;43.980;2022-12-24T01:24:47;98937.46;;;8.05;65.71
75867;BME280;64513;56.258;43.980;2022-12-24T01:27:11;98940.88;;;8.05;65.69
75867;BME280;64513;56.258;43.980;2022-12-24T01:29:36;98943.52;;;8.05;65.68
75867;BME280;64513;56.258;43.980;2022-12-24T01:32:00;98942.45;;;8.06;65.72
75867;BME280;64513;56.258;43.980;2022-12-24T01:34:24;98945.36;;;8.05;65.74
75867;BME280;64513;56.258;43.980;2022-12-24T01:36:48;98934.55;;;8.06;65.72
75867;BME280;64513;56.258;43.980;2022-12-24T01:39:12;98933.49;;;8.07;65.73
75867;BME280;64513;56.258;43.980;2022-12-24T01:41:36;98934.28;;;8.08;65.73
75867;BME280;64513;56.258;43.980;2022-12-24T01:44:41;98945.59;;;8.08;65.72
75867;BME280;64513;56.258;43.980;2022-12-24T01:50:30;98953.49;;;8.08;65.71
75867;BME280;64513;56.258;43.980;2022-12-24T01:52:54;98945.87;;;8.07;65.74
75867;BME280;64513;56.258;43.980;2022-12-24T01:55:20;98943.52;;;8.05;65.76
75867;BME280;64513;56.258;43.980;2022-12-24T01:58:17;98966.42;;;8.05;65.82
75867;BME280;64513;56.258;43.980;2022-12-24T02:00:13;98961.16;;;8.05;65.88
75867;BME280;64513;56.258;43.980;2022-12-24T02:02:40;98960.09;;;8.06;65.91
75867;BME280;64513;56.258;43.980;2022-12-24T02:07:51;98960.61;;;8.08;65.88
75867;BME280;64513;56.258;43.980;2022-12-24T02:10:17;98954.28;;;8.09;65.84
75867;BME280;64513;56.258;43.980;2022-12-24T02:12:41;98962.96;;;8.09;65.83
75867;BME280;64513;56.258;43.980;2022-12-24T02:15:09;98969.80;;;8.10;65.88
75867;BME280;64513;56.258;43.980;2022-12-24T02:30:44;98969.80;;;8.10;65.85
75867;BME280;64513;56.258;43.980;2022-12-24T02:36:02;98974.83;;;8.07;65.99
75867;BME280;64513;56.258;43.980;2022-12-24T02:44:57;98988.27;;;8.05;66.07
75867;BME280;64513;56.258;43.980;2022-12-24T02:47:23;98991.97;;;8.04;66.07
75867;BME280;64513;56.258;43.980;2022-12-24T02:49:48;98984.86;;;8.05;66.17
75867;BME280;64513;56.258;43.980;2022-12-24T02:52:33;98993.54;;;8.05;66.21
75867;BME280;64513;56.258;43.980;2022-12-24T03:00:13;98999.83;;;8.09;66.24
75867;BME280;64513;56.258;43.980;2022-12-24T03:03:03;99009.81;;;8.13;66.17
75867;BME280;64513;56.258;43.980;2022-12-24T03:06:23;99003.76;;;8.12;66.17
75867;BME280;64513;56.258;43.980;2022-12-24T03:09:07;99015.08;;;8.13;66.16
75867;BME280;64513;56.258;43.980;2022-12-24T03:11:19;99009.81;;;8.13;66.17
75867;BME280;64513;56.258;43.980;2022-12-24T03:13:43;99013.51;;;8.12;66.21
75867;BME280;64513;56.258;43.980;2022-12-24T03:16:12;99017.20;;;8.10;66.16
75867;BME280;64513;56.258;43.980;2022-12-24T03:18:37;99016.14;;;8.12;66.18
75867;BME280;64513;56.258;43.980;2022-12-24T03:24:08;99008.23;;;8.12;66.22
75867;BME280;64513;56.258;43.980;2022-12-24T03:26:33;99002.97;;;8.12;66.17
75867;BME280;64513;56.258;43.980;2022-12-24T03:28:57;99016.14;;;8.12;66.20
75867;BME280;64513;56.258;43.980;2022-12-24T03:31:22;99017.98;;;8.11;66.23
75867;BME280;64513;56.258;43.980;2022-12-24T03:33:46;99014.30;;;8.12;66.24
75867;BME280;64513;56.258;43.980;2022-12-24T03:36:11;99022.70;;;8.14;66.26
75867;BME280;64513;56.258;43.980;2022-12-24T03:38:35;99025.06;;;8.16;66.21
75867;BME280;64513;56.258;43.980;2022-12-24T03:41:00;99026.63;;;8.17;66.17
75867;BME280;64513;56.258;43.980;2022-12-24T03:43:24;99032.69;;;8.17;66.15
75867;BME280;64513;56.258;43.980;2022-12-24T03:45:48;99030.84;;;8.18;66.15
75867;BME280;64513;56.258;43.980;2022-12-24T03:48:12;99029.75;;;8.19;66.14
75867;BME280;64513;56.258;43.980;2022-12-24T03:50:36;99038.73;;;8.18;66.15
75867;BME280;64513;56.258;43.980;2022-12-24T03:53:00;99041.86;;;8.20;66.10
75867;BME280;64513;56.258;43.980;2022-12-24T03:55:25;99035.53;;;8.21;66.12
75867;BME280;64513;56.258;43.980;2022-12-24T03:57:49;99031.32;;;8.20;66.10
75867;BME280;64513;56.258;43.980;2022-12-24T04:00:14;99048.70;;;8.21;66.13
75867;BME280;64513;56.258;43.980;2022-12-24T04:02:38;99042.64;;;8.20;66.15
75867;BME280;64513;56.258;43.980;2022-12-24T04:05:02;99041.86;;;8.20;66.12
75867;BME280;64513;56.258;43.980;2022-12-24T04:07:27;99037.38;;;8.20;66.13
75867;BME280;64513;56.258;43.980;2022-12-24T04:09:51;99035.53;;;8.21;66.12
75867;BME280;64513;56.258;43.980;2022-12-24T04:12:15;99047.13;;;8.20;66.12
75867;BME280;64513;56.258;43.980;2022-12-24T04:14:39;99045.27;;;8.20;66.13
75867;BME280;64513;56.258;43.980;2022-12-24T04:17:03;99052.39;;;8.20;66.16
75867;BME280;64513;56.258;43.980;2022-12-24T04:19:27;99039.22;;;8.20;66.16
75867;BME280;64513;56.258;43.980;2022-12-24T04:21:52;99058.44;;;8.20;66.18
75867;BME280;64513;56.258;43.980;2022-12-24T04:24:16;99053.97;;;8.21;66.16
75867;BME280;64513;56.258;43.980;2022-12-24T04:26:40;99051.33;;;8.21;66.16
75867;BME280;64513;56.258;43.980;2022-12-24T04:29:04;99058.17;;;8.22;66.09
75867;BME280;64513;56.258;43.980;2022-12-24T04:31:29;99060.80;;;8.22;66.10
75867;BME280;64513;56.258;43.980;2022-12-24T04:33:53;99071.85;;;8.24;66.06
75867;BME280;64513;56.258;43.980;2022-12-24T04:36:18;99061.59;;;8.22;66.07
75867;BME280;64513;56.258;43.980;2022-12-24T04:38:43;99071.34;;;8.22;66.09
75867;BME280;64513;56.258;43.980;2022-12-24T04:43:53;99077.39;;;8.22;66.04
75867;BME280;64513;56.258;43.980;2022-12-24T04:46:50;99074.25;;;8.20;66.04
75867;BME280;64513;56.258;43.980;2022-12-24T04:48:47;99079.52;;;8.20;66.06
75867;BME280;64513;56.258;43.980;2022-12-24T04:51:12;99075.03;;;8.21;66.11
75867;BME280;64513;56.258;43.980;2022-12-24T04:53:37;99078.73;;;8.20;66.06
75867;BME280;64513;56.258;43.980;2022-12-24T04:56:02;99084.00;;;8.20;66.10
75867;BME280;64513;56.258;43.980;2022-12-24T04:58:27;99080.30;;;8.21;66.06
75867;BME280;64513;56.258;43.980;2022-12-24T05:00:52;99068.19;;;8.20;66.09
75867;BME280;64513;56.258;43.980;2022-12-24T05:03:16;99081.36;;;8.20;66.09
75867;BME280;64513;56.258;43.980;2022-12-24T05:05:40;99082.94;;;8.21;66.09
75867;BME280;64513;56.258;43.980;2022-12-24T05:08:05;99098.73;;;8.21;66.11
75867;BME280;64513;56.258;43.980;2022-12-24T05:10:29;99096.10;;;8.21;66.07
75867;BME280;64513;56.258;43.980;2022-12-24T05:12:53;99099.80;;;8.20;66.08
75867;BME280;64513;56.258;43.980;2022-12-24T05:15:17;99096.10;;;8.21;66.07
75867;BME280;64513;56.258;43.980;2022-12-24T05:17:41;99096.10;;;8.21;66.02
75867;BME280;64513;56.258;43.980;2022-12-24T05:20:06;99098.46;;;8.22;66.02
75867;BME280;64513;56.258;43.980;2022-12-24T05:22:30;99101.09;;;8.22;66.01
75867;BME280;64513;56.258;43.980;2022-12-24T05:25:15;99087.14;;;8.22;65.99
75867;BME280;64513;56.258;43.980;2022-12-24T05:27:58;99095.05;;;8.22;65.94
75867;BME280;64513;56.258;43.980;2022-12-24T05:30:23;99105.85;;;8.20;65.91
75867;BME280;64513;56.258;43.980;2022-12-24T05:32:47;99108.48;;;8.20;65.95
75867;BME280;64513;56.258;43.980;2022-12-24T05:35:11;99116.38;;;8.20;65.86
75867;BME280;64513;56.258;43.980;2022-12-24T05:37:35;99109.27;;;8.21;65.88
75867;BME280;64513;56.258;43.980;2022-12-24T05:39:59;99115.33;;;8.21;65.85
75867;BME280;64513;56.258;43.980;2022-12-24T05:42:25;99116.11;;;8.22;65.83
75867;BME280;64513;56.258;43.980;2022-12-24T05:44:49;99117.17;;;8.21;65.85
75867;BME280;64513;56.258;43.980;2022-12-24T05:47:13;99118.74;;;8.22;65.81
75867;BME280;64513;56.258;43.980;2022-12-24T05:49:38;99117.95;;;8.21;65.85
75867;BME280;64513;56.258;43.980;2022-12-24T05:52:02;99120.86;;;8.20;65.87
75867;BME280;64513;56.258;43.980;2022-12-24T05:54:26;99123.50;;;8.20;65.96
75867;BME280;64513;56.258;43.980;2022-12-24T05:56:50;99110.33;;;8.20;65.92
75867;BME280;64513;56.258;43.980;2022-12-24T05:59:15;99130.61;;;8.19;65.87
75867;BME280;64513;56.258;43.980;2022-12-24T06:01:39;99121.92;;;8.19;65.87
75867;BME280;64513;56.258;43.980;2022-12-24T06:04:04;99117.75;;;8.18;65.92
75867;BME280;64513;56.258;43.980;2022-12-24T06:06:29;99137.73;;;8.19;65.93
75867;BME280;64513;56.258;43.980;2022-12-24T06:08:54;99120.86;;;8.20;65.91
75867;BME280;64513;56.258;43.980;2022-12-24T06:11:51;99122.44;;;8.21;65.98
75867;BME280;64513;56.258;43.980;2022-12-24T06:13:45;99130.34;;;8.21;65.90
75867;BME280;64513;56.258;43.980;2022-12-24T06:16:12;99142.45;;;8.22;65.93
75867;BME280;64513;56.258;43.980;2022-12-24T06:18:37;99132.70;;;8.22;65.86
75867;BME280;64513;56.258;43.980;2022-12-24T06:21:02;99130.86;;;8.23;65.84
75867;BME280;64513;56.258;43.980;2022-12-24T06:23:29;99134.27;;;8.23;65.90
75867;BME280;64513;56.258;43.980;2022-12-24T06:25:56;99142.97;;;8.24;65.88
75867;BME280;64513;56.258;43.980;2022-12-24T06:28:22;99131.64;;;8.23;65.86
75867;BME280;64513;56.258;43.980;2022-12-24T06:30:49;99147.45;;;8.23;65.86
75867;BME280;64513;56.258;43.980;2022-12-24T06:33:14;99142.97;;;8.24;65.94
75867;BME280;64513;56.258;43.980;2022-12-24T06:35:38;99135.58;;;8.26;65.88
75867;BME280;64513;56.258;43.980;2022-12-24T06:38:03;99138.72;;;8.28;65.88
75867;BME280;64513;56.258;43.980;2022-12-24T06:40:27;99141.88;;;8.30;65.81
75867;BME280;64513;56.258;43.980;2022-12-24T06:42:52;99141.88;;;8.30;65.76
75867;BME280;64513;56.258;43.980;2022-12-24T06:45:16;99137.15;;;8.32;65.73
75867;BME280;64513;56.258;43.980;2022-12-24T06:47:40;99138.97;;;8.31;65.74
75867;BME280;64513;56.258;43.980;2022-12-24T06:50:05;99123.98;;;8.32;65.72
75867;BME280;64513;56.258;43.980;2022-12-24T06:52:30;99136.09;;;8.33;65.67
75867;BME280;64513;56.258;43.980;2022-12-24T06:54:54;99145.27;;;8.35;65.59
75867;BME280;64513;56.258;43.980;2022-12-24T06:57:18;99139.20;;;8.35;65.62
75867;BME280;64513;56.258;43.980;2022-12-24T06:59:42;99145.27;;;8.35;65.68
75867;BME280;64513;56.258;43.980;2022-12-24T07:02:07;99140.78;;;8.36;65.67
75867;BME280;64513;56.258;43.980;2022-12-24T07:04:32;99153.95;;;8.36;65.63
75867;BME280;64513;56.258;43.980;2022-12-24T07:06:56;99142.36;;;8.37;65.60
75867;BME280;64513;56.258;43.980;2022-12-24T07:09:20;99147.63;;;8.37;65.58
75867;BME280;64513;56.258;43.980;2022-12-24T07:11:44;99149.20;;;8.38;65.55
75867;BME280;64513;56.258;43.980;2022-12-24T07:14:09;99145.50;;;8.39;65.50
75867;BME280;64513;56.258;43.980;2022-12-24T07:16:33;99144.44;;;8.40;65.52
75867;BME280;64513;56.258;43.980;2022-12-24T07:18:57;99131.27;;;8.40;65.52
75867;BME280;64513;56.258;43.980;2022-12-24T07:21:21;99151.28;;;8.41;65.50
75867;BME280;64513;56.258;43.980;2022-12-24T07:23:45;99146.02;;;8.41;65.48
75867;BME280;64513;56.258;43.980;2022-12-24T07:26:10;99147.59;;;8.42;65.47
75867;BME280;64513;56.258;43.980;2022-12-24T07:28:34;99149.16;;;8.43;65.45
75867;BME280;64513;56.258;43.980;2022-12-24T07:30:58;99158.64;;;8.44;65.42
75867;BME280;64513;56.258;43.980;2022-12-24T07:33:24;99157.06;;;8.43;65.41
75867;BME280;64513;56.258;43.980;2022-12-24T07:35:56;99146.53;;;8.43;65.44
75867;BME280;64513;56.258;43.980;2022-12-24T07:38:14;99146.53;;;8.43;65.50
75867;BME280;64513;56.258;43.980;2022-12-24T07:40:38;99146.53;;;8.43;65.53
75867;BME280;64513;56.258;43.980;2022-12-24T07:43:03;99145.74;;;8.42;65.56
75867;BME280;64513;56.258;43.980;2022-12-24T07:45:27;99154.44;;;8.43;65.47
75867;BME280;64513;56.258;43.980;2022-12-24T07:47:51;99153.65;;;8.42;65.54
75867;BME280;64513;56.258;43.980;2022-12-24T07:50:15;99148.11;;;8.44;65.58
75867;BME280;64513;56.258;43.980;2022-12-24T07:52:39;99144.41;;;8.45;65.51
75867;BME280;64513;56.258;43.980;2022-12-24T07:55:04;99143.34;;;8.46;65.48
75867;BME280;64513;56.258;43.980;2022-12-24T07:57:28;99144.41;;;8.45;65.49
75867;BME280;64513;56.258;43.980;2022-12-24T07:59:52;99150.47;;;8.46;65.52
75867;BME280;64513;56.258;43.980;2022-12-24T08:02:16;99160.73;;;8.47;65.50
75867;BME280;64513;56.258;43.980;2022-12-24T08:04:41;99150.47;;;8.46;65.43
75867;BME280;64513;56.258;43.980;2022-12-24T08:07:06;99153.10;;;8.46;65.49
75867;BME280;64513;56.258;43.980;2022-12-24T08:09:50;99149.67;;;8.45;65.51
75867;BME280;64513;56.258;43.980;2022-12-24T08:12:14;99154.95;;;8.45;65.46
75867;BME280;64513;56.258;43.980;2022-12-24T08:14:39;99163.36;;;8.47;65.43
75867;BME280;64513;56.258;43.980;2022-12-24T08:17:03;99148.34;;;8.48;65.40
75867;BME280;64513;56.258;43.980;2022-12-24T08:19:27;99149.13;;;8.48;65.37
75867;BME280;64513;56.258;43.980;2022-12-24T08:21:51;99148.07;;;8.49;65.33
75867;BME280;64513;56.258;43.980;2022-12-24T08:24:15;99146.98;;;8.50;65.26
75867;BME280;64513;56.258;43.980;2022-12-24T08:26:39;99152.25;;;8.50;65.21
75867;BME280;64513;56.258;43.980;2022-12-24T08:29:04;99125.41;;;8.48;65.09
75867;BME280;64513;56.258;43.980;2022-12-24T08:31:28;99146.50;;;8.48;65.17
75867;BME280;64513;56.258;43.980;2022-12-24T08:33:54;99140.44;;;8.48;65.10
75867;BME280;64513;56.258;43.980;2022-12-24T08:36:19;99143.34;;;8.46;65.10
75867;BME280;64513;56.258;43.980;2022-12-24T08:38:43;99143.86;;;8.48;65.09
75867;BME280;64513;56.258;43.980;2022-12-24T08:41:07;99143.86;;;8.48;65.09
75867;BME280;64513;56.258;43.980;2022-12-24T08:43:31;99154.40;;;8.48;65.08
75867;BME280;64513;56.258;43.980;2022-12-24T08:46:00;99125.41;;;8.48;65.06
75867;BME280;64513;56.258;43.980;2022-12-24T08:48:21;99138.59;;;8.48;65.16
75867;BME280;64513;56.258;43.980;2022-12-24T08:50:46;99149.13;;;8.48;65.11
75867;BME280;64513;56.258;43.980;2022-12-24T08:53:10;99137.80;;;8.48;65.16
75867;BME280;64513;56.258;43.980;2022-12-24T08:55:34;99151.25;;;8.46;65.17
75867;BME280;64513;56.258;43.980;2022-12-24T08:57:59;99158.09;;;8.47;65.17
75867;BME280;64513;56.258;43.980;2022-12-24T09:00:23;99122.27;;;8.46;65.11
75867;BME280;64513;56.258;43.980;2022-12-24T09:02:48;99140.71;;;8.46;65.08
75867;BME280;64513;56.258;43.980;2022-12-24T09:05:12;99143.34;;;8.46;65.07
75867;BME280;64513;56.258;43.980;2022-12-24T09:07:36;99144.41;;;8.45;65.08
75867;BME280;64513;56.258;43.980;2022-12-24T09:10:00;99146.25;;;8.44;65.13
75867;BME280;64513;56.258;43.980;2022-12-24T09:12:25;99145.98;;;8.46;65.09
75867;BME280;64513;56.258;43.980;2022-12-24T09:15:10;99141.77;;;8.45;65.08
75867;BME280;64513;56.258;43.980;2022-12-24T09:17:35;99139.14;;;8.45;65.14
75867;BME280;64513;56.258;43.980;2022-12-24T09:19:59;99149.67;;;8.45;65.12
75867;BME280;64513;56.258;43.980;2022-12-24T09:22:23;99137.56;;;8.44;65.18
75867;BME280;64513;56.258;43.980;2022-12-24T09:24:48;99146.53;;;8.43;65.15
75867;BME280;64513;56.258;43.980;2022-12-24T09:27:12;99138.91;;;8.41;65.16
75867;BME280;64513;56.258;43.980;2022-12-24T09:29:36;99134.42;;;8.42;65.21
75867;BME280;64513;56.258;43.980;2022-12-24T09:32:01;99135.98;;;8.43;65.14
75867;BME280;64513;56.258;43.980;2022-12-24T09:34:25;99124.94;;;8.41;65.13
75867;BME280;64513;56.258;43.980;2022-12-24T09:36:49;99129.94;;;8.42;65.18
75867;BME280;64513;56.258;43.980;2022-12-24T09:39:14;99145.74;;;8.42;65.07
75867;BME280;64513;56.258;43.980;2022-12-24T09:48:20;99133.88;;;8.45;65.06
75867;BME280;64513;56.258;43.980;2022-12-24T09:53:53;99109.64;;;8.43;64.99
75867;BME280;64513;56.258;43.980;2022-12-24T09:55:49;99132.84;;;8.41;64.96
75867;BME280;64513;56.258;43.980;2022-12-24T10:01:01;99113.61;;;8.40;64.99
75867;BME280;64513;56.258;43.980;2022-12-24T10:03:25;99128.36;;;8.41;64.96
75867;BME280;64513;56.258;43.980;2022-12-24T10:06:11;99130.48;;;8.39;65.04
75867;BME280;64513;56.258;43.980;2022-12-24T10:09:10;99114.41;;;8.41;65.00
75867;BME280;64513;56.258;43.980;2022-12-24T10:11:26;99131.27;;;8.40;64.87
75867;BME280;64513;56.258;43.980;2022-12-24T10:32:17;99067.54;;;8.04;65.26
75867;BME280;64513;56.258;43.980;2022-12-24T10:37:27;99089.98;;;7.96;65.34
75867;BME280;64513;56.258;43.980;2022-12-24T10:39:54;99085.81;;;7.90;65.41
75867;BME280;64513;56.258;43.980;2022-12-24T10:42:20;99072.14;;;7.88;65.38
75867;BME280;64513;56.258;43.980;2022-12-24T10:44:49;99070.56;;;7.87;65.47
75867;BME280;64513;56.258;43.980;2022-12-24T10:47:13;99080.09;;;7.83;65.36
75867;BME280;64513;56.258;43.980;2022-12-24T10:52:43;99095.91;;;7.78;65.45
75867;BME280;64513;56.258;43.980;2022-12-24T10:55:28;99085.67;;;7.71;65.50
75867;BME280;64513;56.258;43.980;2022-12-24T10:58:14;99075.45;;;7.70;65.50
75867;BME280;64513;56.258;43.980;2022-12-24T11:00:38;99090.99;;;7.66;65.47
75867;BME280;64513;56.258;43.980;2022-12-24T11:03:27;99076.53;;;7.64;65.44
75867;BME280;64513;56.258;43.980;2022-12-24T11:06:10;99076.53;;;7.64;65.49
75867;BME280;64513;56.258;43.980;2022-12-24T11:08:37;99088.39;;;7.61;65.49
75867;BME280;64513;56.258;43.980;2022-12-24T11:16:16;99093.40;;;7.58;65.50
75867;BME280;64513;56.258;43.980;2022-12-24T11:19:02;99102.34;;;7.57;65.55
75867;BME280;64513;56.258;43.980;2022-12-24T11:21:47;99091.34;;;7.55;65.58
75867;BME280;64513;56.258;43.980;2022-12-24T11:24:32;99082.66;;;7.54;65.65
75867;BME280;64513;56.258;43.980;2022-12-24T11:30:24;99120.81;;;7.52;65.57
75867;BME280;64513;56.258;43.980;2022-12-24T11:36:09;99113.98;;;7.51;65.54
75867;BME280;64513;56.258;43.980;2022-12-24T11:41:22;99123.71;;;7.50;65.42
75867;BME280;64513;56.258;43.980;2022-12-24T11:43:36;99117.94;;;7.48;65.41
75867;BME280;64513;56.258;43.980;2022-12-24T11:49:28;99106.64;;;7.43;65.17
75867;BME280;64513;56.258;43.980;2022-12-24T12:00:29;99117.22;;;7.32;65.12
75867;BME280;64513;56.258;43.980;2022-12-24T12:02:56;99110.39;;;7.31;65.06
75867;BME280;64513;56.258;43.980;2022-12-24T12:10:53;99090.91;;;7.37;65.07
75867;BME280;64513;56.258;43.980;2022-12-24T12:25:00;99116.16;;;7.38;64.79
75867;BME280;64513;56.258;43.980;2022-12-24T12:27:46;99115.09;;;7.39;64.74
75867;BME280;64513;56.258;43.980;2022-12-24T12:30:31;99106.42;;;7.39;64.75
75867;BME280;64513;56.258;43.980;2022-12-24T12:35:43;99111.67;;;7.39;64.63
75867;BME280;64513;56.258;43.980;2022-12-24T12:38:27;99111.69;;;7.34;64.49
75867;BME280;64513;56.258;43.980;2022-12-24T12:59:19;99107.56;;;7.13;64.67
75867;BME280;64513;56.258;43.980;2022-12-24T13:10:43;99102.63;;;7.01;64.75
75867;BME280;64513;56.258;43.980;2022-12-24T13:22:18;99107.36;;;6.99;64.98
75867;BME280;64513;56.258;43.980;2022-12-24T13:25:03;99126.80;;;7.03;64.91
75867;BME280;64513;56.258;43.980;2022-12-24T13:27:30;99134.16;;;7.06;64.88
75867;BME280;64513;56.258;43.980;2022-12-24T13:33:01;99110.23;;;7.08;64.74
75867;BME280;64513;56.258;43.980;2022-12-24T13:35:28;99083.16;;;7.07;64.74
75867;BME280;64513;56.258;43.980;2022-12-24T13:37:52;99093.11;;;7.10;64.68
75867;BME280;64513;56.258;43.980;2022-12-24T13:45:52;99124.13;;;7.13;64.58
75867;BME280;64513;56.258;43.980;2022-12-24T13:53:48;99128.33;;;7.19;64.49
75867;BME280;64513;56.258;43.980;2022-12-24T13:58:43;99104.62;;;7.24;64.46
75867;BME280;64513;56.258;43.980;2022-12-24T14:04:20;99120.91;;;7.26;64.38
75867;BME280;64513;56.258;43.980;2022-12-24T14:06:40;99117.23;;;7.27;64.29
75867;BME280;64513;56.258;43.980;2022-12-24T14:14:56;99116.69;;;7.35;64.11
75867;BME280;64513;56.258;43.980;2022-12-24T14:17:40;99119.58;;;7.34;64.15
75867;BME280;64513;56.258;43.980;2022-12-24T14:20:06;99117.73;;;7.34;63.98
75867;BME280;64513;56.258;43.980;2022-12-24T14:22:51;99115.64;;;7.31;64.06
75867;BME280;64513;56.258;43.980;2022-12-24T14:25:37;99115.64;;;7.31;64.00
75867;BME280;64513;56.258;43.980;2022-12-24T14:34:25;99100.92;;;7.30;63.97
75867;BME280;64513;56.258;43.980;2022-12-24T14:36:21;99121.69;;;7.32;63.96
75867;BME280;64513;56.258;43.980;2022-12-24T14:38:46;99129.31;;;7.33;63.94
75867;BME280;64513;56.258;43.980;2022-12-24T14:47:24;99117.73;;;7.39;63.69
75867;BME280;64513;56.258;43.980;2022-12-24T14:55:54;99113.52;;;7.38;63.50
75867;BME280;64513;56.258;43.980;2022-12-24T14:58:39;99128.25;;;7.39;63.44
75867;BME280;64513;56.258;43.980;2022-12-24T15:06:55;99122.20;;;7.39;63.25
75867;BME280;64513;56.258;43.980;2022-12-24T15:09:42;99110.89;;;7.38;63.22
75867;BME280;64513;56.258;43.980;2022-12-24T15:12:06;99124.04;;;7.38;63.29
75867;BME280;64513;56.258;43.980;2022-12-24T15:14:34;99125.09;;;7.37;63.10
75867;BME280;64513;56.258;43.980;2022-12-24T15:19:46;99109.31;;;7.37;63.04
75867;BME280;64513;56.258;43.980;2022-12-24T15:22:33;99099.58;;;7.38;63.12
75867;BME280;64513;56.258;43.980;2022-12-24T15:24:57;99091.42;;;7.39;62.99
75867;BME280;64513;56.258;43.980;2022-12-24T15:27:23;99091.42;;;7.39;63.10
75867;BME280;64513;56.258;43.980;2022-12-24T15:32:17;99086.70;;;7.36;62.94
75867;BME280;64513;56.258;43.980;2022-12-24T15:34:44;99098.80;;;7.37;63.04
75867;BME280;64513;56.258;43.980;2022-12-24T15:37:29;99107.47;;;7.38;63.11
75867;BME280;64513;56.258;43.980;2022-12-24T15:39:56;99099.02;;;7.41;63.08
75867;BME280;64513;56.258;43.980;2022-12-24T15:42:23;99105.85;;;7.42;63.01
75867;BME280;64513;56.258;43.980;2022-12-24T15:47:55;99079.80;;;7.46;62.96
75867;BME280;64513;56.258;43.980;2022-12-24T15:53:07;99095.31;;;7.47;63.18
75867;BME280;64513;56.258;43.980;2022-12-24T16:04:24;99112.92;;;7.52;63.05
75867;BME280;64513;56.258;43.980;2022-12-24T16:06:17;99109.23;;;7.53;63.01
75867;BME280;64513;56.258;43.980;2022-12-24T16:08:42;99103.97;;;7.53;63.04
75867;BME280;64513;56.258;43.980;2022-12-24T16:13:39;99117.34;;;7.56;63.07
75867;BME280;64513;56.258;43.980;2022-12-24T16:19:45;99110.77;;;7.59;62.98
75867;BME280;64513;56.258;43.980;2022-12-24T16:21:38;99102.87;;;7.59;62.98
75867;BME280;64513;56.258;43.980;2022-12-24T16:24:05;99102.87;;;7.59;62.95
75867;BME280;64513;56.258;43.980;2022-12-24T16:26:29;99105.50;;;7.59;62.97
75867;BME280;64513;56.258;43.980;2022-12-24T16:28:55;99098.39;;;7.59;62.85
75867;BME280;64513;56.258;43.980;2022-12-24T16:34:05;99111.53;;;7.64;62.83
75867;BME280;64513;56.258;43.980;2022-12-24T16:36:30;99109.69;;;7.65;62.79
75867;BME280;64513;56.258;43.980;2022-12-24T16:38:57;99103.36;;;7.66;62.87
75867;BME280;64513;56.258;43.980;2022-12-24T16:41:41;99106.78;;;7.66;62.88
75867;BME280;64513;56.258;43.980;2022-12-24T16:44:25;99103.09;;;7.67;62.83
75867;BME280;64513;56.258;43.980;2022-12-24T16:46:51;99097.05;;;7.67;62.86
75867;BME280;64513;56.258;43.980;2022-12-24T16:49:35;99107.56;;;7.67;62.87
75867;BME280;64513;56.258;43.980;2022-12-24T16:52:00;99094.93;;;7.69;65.54
75867;BME280;64513;56.258;43.980;2022-12-24T16:54:24;99103.72;;;8.56;77.33
75867;BME280;64513;56.258;43.980;2022-12-24T16:56:49;99096.15;;;8.97;73.89